sensor_id;sensor_type;location;lat;lon;timestamp;temperature;humidity
38500;DHT22;24269;51.894;4.622;2022-08-01T00:00:12;19.40;99.90
38500;DHT22;24269;51.894;4.622;2022-08-01T00:02:40;19.50;99.90
38500;DHT22;24269;51.894;4.622;2022-08-01T00:05:07;19.50;99.90
38500;DHT22;24269;51.894;4.622;2022-08-01T00:07:34;19.40;99.90
38500;DHT22;24269;51.894;4.622;2022-08-01T00:10:04;19.40;99.90
38500;DHT22;24269;51.894;4.622;2022-08-01T00:12:30;19.40;99.90
38500;DHT22;24269;51.894;4.622;2022-08-01T00:14:55;19.40;99.90
38500;DHT22;24269;51.894;4.622;2022-08-01T00:17:21;19.40;99.90
38500;DHT22;24269;51.894;4.622;2022-08-01T00:19:46;19.40;99.90
38500;DHT22;24269;51.894;4.622;2022-08-01T00:22:12;19.50;99.90
38500;DHT22;24269;51.894;4.622;2022-08-01T00:24:38;19.40;99.90
38500;DHT22;24269;51.894;4.622;2022-08-01T00:27:03;19.50;99.90
38500;DHT22;24269;51.894;4.622;2022-08-01T00:29:29;19.40;99.90
38500;DHT22;24269;51.894;4.622;2022-08-01T00:31:54;19.50;99.90
38500;DHT22;24269;51.894;4.622;2022-08-01T00:34:20;19.50;99.90
38500;DHT22;24269;51.894;4.622;2022-08-01T00:36:45;19.50;99.90
38500;DHT22;24269;51.894;4.622;2022-08-01T00:39:12;19.40;99.90
38500;DHT22;24269;51.894;4.622;2022-08-01T00:41:37;19.40;99.90
38500;DHT22;24269;51.894;4.622;2022-08-01T00:44:04;19.40;99.90
38500;DHT22;24269;51.894;4.622;2022-08-01T00:46:31;19.40;99.90
38500;DHT22;24269;51.894;4.622;2022-08-01T00:48:57;19.40;99.90
38500;DHT22;24269;51.894;4.622;2022-08-01T00:51:23;19.40;99.90
38500;DHT22;24269;51.894;4.622;2022-08-01T00:53:50;19.40;99.90
38500;DHT22;24269;51.894;4.622;2022-08-01T00:56:16;19.30;99.90
38500;DHT22;24269;51.894;4.622;2022-08-01T00:58:42;19.30;99.90
38500;DHT22;24269;51.894;4.622;2022-08-01T01:01:09;19.30;99.90
38500;DHT22;24269;51.894;4.622;2022-08-01T01:03:35;19.30;99.90
38500;DHT22;24269;51.894;4.622;2022-08-01T01:06:09;19.30;99.90
38500;DHT22;24269;51.894;4.622;2022-08-01T01:09:17;19.30;99.90
38500;DHT22;24269;51.894;4.622;2022-08-01T01:12:10;19.30;99.90
38500;DHT22;24269;51.894;4.622;2022-08-01T01:15:01;19.30;99.90
38500;DHT22;24269;51.894;4.622;2022-08-01T01:17:32;19.30;99.90
38500;DHT22;24269;51.894;4.622;2022-08-01T01:19:59;19.30;99.90
38500;DHT22;24269;51.894;4.622;2022-08-01T01:22:36;19.30;99.90
38500;DHT22;24269;51.894;4.622;2022-08-01T01:30:33;19.20;99.90
38500;DHT22;24269;51.894;4.622;2022-08-01T01:33:02;19.20;99.90
38500;DHT22;24269;51.894;4.622;2022-08-01T01:35:32;19.20;99.90
38500;DHT22;24269;51.894;4.622;2022-08-01T01:38:07;19.20;99.90
38500;DHT22;24269;51.894;4.622;2022-08-01T01:40:34;19.20;99.90
38500;DHT22;24269;51.894;4.622;2022-08-01T01:43:01;19.10;99.90
38500;DHT22;24269;51.894;4.622;2022-08-01T01:45:27;19.10;99.90
38500;DHT22;24269;51.894;4.622;2022-08-01T01:47:54;19.00;99.90
38500;DHT22;24269;51.894;4.622;2022-08-01T01:50:21;19.00;99.90
38500;DHT22;24269;51.894;4.622;2022-08-01T01:52:49;18.90;99.90
38500;DHT22;24269;51.894;4.622;2022-08-01T01:55:15;18.90;99.90
38500;DHT22;24269;51.894;4.622;2022-08-01T01:57:43;18.90;99.90
38500;DHT22;24269;51.894;4.622;2022-08-01T02:00:11;18.80;99.90
38500;DHT22;24269;51.894;4.622;2022-08-01T02:02:37;18.80;99.90
38500;DHT22;24269;51.894;4.622;2022-08-01T02:05:05;18.80;99.90
38500;DHT22;24269;51.894;4.622;2022-08-01T02:07:32;18.80;99.90
38500;DHT22;24269;51.894;4.622;2022-08-01T02:10:00;18.80;99.90
38500;DHT22;24269;51.894;4.622;2022-08-01T02:12:27;18.80;99.90
38500;DHT22;24269;51.894;4.622;2022-08-01T02:14:55;18.80;99.90
38500;DHT22;24269;51.894;4.622;2022-08-01T02:17:23;18.90;99.90
38500;DHT22;24269;51.894;4.622;2022-08-01T02:19:50;18.80;99.90
38500;DHT22;24269;51.894;4.622;2022-08-01T02:22:25;18.80;99.90
38500;DHT22;24269;51.894;4.622;2022-08-01T02:25:06;18.90;99.90
38500;DHT22;24269;51.894;4.622;2022-08-01T02:27:44;18.80;99.90
38500;DHT22;24269;51.894;4.622;2022-08-01T02:30:13;18.90;99.90
38500;DHT22;24269;51.894;4.622;2022-08-01T02:32:47;18.80;99.90
38500;DHT22;24269;51.894;4.622;2022-08-01T02:35:24;18.80;99.90
38500;DHT22;24269;51.894;4.622;2022-08-01T02:37:52;18.80;99.90
38500;DHT22;24269;51.894;4.622;2022-08-01T02:40:19;18.80;99.90
38500;DHT22;24269;51.894;4.622;2022-08-01T02:42:50;18.80;99.90
38500;DHT22;24269;51.894;4.622;2022-08-01T02:45:19;18.80;99.90
38500;DHT22;24269;51.894;4.622;2022-08-01T02:47:47;18.80;99.90
38500;DHT22;24269;51.894;4.622;2022-08-01T02:50:14;18.80;99.90
38500;DHT22;24269;51.894;4.622;2022-08-01T02:52:44;18.80;99.90
38500;DHT22;24269;51.894;4.622;2022-08-01T02:55:12;18.80;99.90
38500;DHT22;24269;51.894;4.622;2022-08-01T02:57:38;18.70;99.90
38500;DHT22;24269;51.894;4.622;2022-08-01T03:00:06;18.70;99.90
38500;DHT22;24269;51.894;4.622;2022-08-01T03:02:32;18.80;99.90
38500;DHT22;24269;51.894;4.622;2022-08-01T03:05:00;18.80;99.90
38500;DHT22;24269;51.894;4.622;2022-08-01T03:07:28;18.80;99.90
38500;DHT22;24269;51.894;4.622;2022-08-01T03:09:56;18.80;99.90
38500;DHT22;24269;51.894;4.622;2022-08-01T03:12:25;18.80;99.90
38500;DHT22;24269;51.894;4.622;2022-08-01T03:14:54;18.80;99.90
38500;DHT22;24269;51.894;4.622;2022-08-01T03:17:21;18.90;99.90
38500;DHT22;24269;51.894;4.622;2022-08-01T03:19:48;18.90;99.90
38500;DHT22;24269;51.894;4.622;2022-08-01T03:22:15;18.80;99.90
38500;DHT22;24269;51.894;4.622;2022-08-01T03:24:42;18.80;99.90
38500;DHT22;24269;51.894;4.622;2022-08-01T03:27:10;18.80;99.90
38500;DHT22;24269;51.894;4.622;2022-08-01T03:29:36;18.80;99.90
38500;DHT22;24269;51.894;4.622;2022-08-01T03:32:03;18.80;99.90
38500;DHT22;24269;51.894;4.622;2022-08-01T03:34:29;18.80;99.90
38500;DHT22;24269;51.894;4.622;2022-08-01T03:39:31;18.80;99.90
38500;DHT22;24269;51.894;4.622;2022-08-01T03:42:03;18.80;99.90
38500;DHT22;24269;51.894;4.622;2022-08-01T03:44:32;18.80;99.90
38500;DHT22;24269;51.894;4.622;2022-08-01T03:47:06;18.80;99.90
38500;DHT22;24269;51.894;4.622;2022-08-01T03:49:35;18.80;99.90
38500;DHT22;24269;51.894;4.622;2022-08-01T03:52:04;18.70;99.90
38500;DHT22;24269;51.894;4.622;2022-08-01T03:54:34;18.70;99.90
38500;DHT22;24269;51.894;4.622;2022-08-01T03:57:02;18.70;99.90
38500;DHT22;24269;51.894;4.622;2022-08-01T03:59:29;18.70;99.90
38500;DHT22;24269;51.894;4.622;2022-08-01T04:01:55;18.70;99.90
38500;DHT22;24269;51.894;4.622;2022-08-01T04:04:21;18.70;99.90
38500;DHT22;24269;51.894;4.622;2022-08-01T04:06:47;18.70;99.90
38500;DHT22;24269;51.894;4.622;2022-08-01T04:09:16;18.60;99.90
38500;DHT22;24269;51.894;4.622;2022-08-01T04:11:42;18.60;99.90
38500;DHT22;24269;51.894;4.622;2022-08-01T04:14:08;18.60;99.90
38500;DHT22;24269;51.894;4.622;2022-08-01T04:16:33;18.50;99.90
38500;DHT22;24269;51.894;4.622;2022-08-01T04:18:59;18.50;99.90
38500;DHT22;24269;51.894;4.622;2022-08-01T04:21:26;18.50;99.90
38500;DHT22;24269;51.894;4.622;2022-08-01T04:26:50;18.50;99.90
38500;DHT22;24269;51.894;4.622;2022-08-01T04:29:17;18.50;99.90
38500;DHT22;24269;51.894;4.622;2022-08-01T04:31:46;18.60;99.90
38500;DHT22;24269;51.894;4.622;2022-08-01T04:34:16;18.60;99.90
38500;DHT22;24269;51.894;4.622;2022-08-01T04:36:43;18.60;99.90
38500;DHT22;24269;51.894;4.622;2022-08-01T04:39:09;18.60;99.90
38500;DHT22;24269;51.894;4.622;2022-08-01T04:41:36;18.60;99.90
38500;DHT22;24269;51.894;4.622;2022-08-01T04:44:03;18.70;99.90
38500;DHT22;24269;51.894;4.622;2022-08-01T04:46:29;18.70;99.90
38500;DHT22;24269;51.894;4.622;2022-08-01T04:48:56;18.70;99.90
38500;DHT22;24269;51.894;4.622;2022-08-01T04:51:22;18.70;99.90
38500;DHT22;24269;51.894;4.622;2022-08-01T04:53:48;18.60;99.90
38500;DHT22;24269;51.894;4.622;2022-08-01T04:56:15;18.60;99.90
38500;DHT22;24269;51.894;4.622;2022-08-01T04:58:42;18.60;99.90
38500;DHT22;24269;51.894;4.622;2022-08-01T05:01:09;18.50;99.90
38500;DHT22;24269;51.894;4.622;2022-08-01T05:03:35;18.50;99.90
38500;DHT22;24269;51.894;4.622;2022-08-01T05:06:00;18.40;99.90
38500;DHT22;24269;51.894;4.622;2022-08-01T05:08:29;18.50;99.90
38500;DHT22;24269;51.894;4.622;2022-08-01T05:10:56;18.40;99.90
38500;DHT22;24269;51.894;4.622;2022-08-01T05:13:21;18.40;99.90
38500;DHT22;24269;51.894;4.622;2022-08-01T05:15:47;18.40;99.90
38500;DHT22;24269;51.894;4.622;2022-08-01T05:18:12;18.50;99.90
38500;DHT22;24269;51.894;4.622;2022-08-01T05:20:38;18.50;99.90
38500;DHT22;24269;51.894;4.622;2022-08-01T05:23:06;18.50;99.90
38500;DHT22;24269;51.894;4.622;2022-08-01T05:25:32;18.60;99.90
38500;DHT22;24269;51.894;4.622;2022-08-01T05:27:58;18.60;99.90
38500;DHT22;24269;51.894;4.622;2022-08-01T05:30:24;18.70;99.90
38500;DHT22;24269;51.894;4.622;2022-08-01T05:32:49;18.80;99.90
38500;DHT22;24269;51.894;4.622;2022-08-01T05:35:15;18.80;99.90
38500;DHT22;24269;51.894;4.622;2022-08-01T05:37:41;18.80;99.90
38500;DHT22;24269;51.894;4.622;2022-08-01T05:40:07;18.80;99.90
38500;DHT22;24269;51.894;4.622;2022-08-01T05:42:32;18.90;99.90
38500;DHT22;24269;51.894;4.622;2022-08-01T05:44:58;18.90;99.90
38500;DHT22;24269;51.894;4.622;2022-08-01T05:47:24;18.90;99.90
38500;DHT22;24269;51.894;4.622;2022-08-01T05:49:49;18.90;99.90
38500;DHT22;24269;51.894;4.622;2022-08-01T05:52:15;18.90;99.90
38500;DHT22;24269;51.894;4.622;2022-08-01T05:54:41;18.90;99.90
38500;DHT22;24269;51.894;4.622;2022-08-01T05:57:06;18.90;99.90
38500;DHT22;24269;51.894;4.622;2022-08-01T05:59:32;19.00;99.90
38500;DHT22;24269;51.894;4.622;2022-08-01T06:01:57;19.10;99.90
38500;DHT22;24269;51.894;4.622;2022-08-01T06:04:23;19.20;99.90
38500;DHT22;24269;51.894;4.622;2022-08-01T06:06:49;19.30;99.90
38500;DHT22;24269;51.894;4.622;2022-08-01T06:09:15;19.30;99.90
38500;DHT22;24269;51.894;4.622;2022-08-01T06:11:40;19.50;99.90
38500;DHT22;24269;51.894;4.622;2022-08-01T06:14:06;19.60;99.90
38500;DHT22;24269;51.894;4.622;2022-08-01T06:16:32;19.80;99.90
38500;DHT22;24269;51.894;4.622;2022-08-01T06:18:58;19.80;99.90
38500;DHT22;24269;51.894;4.622;2022-08-01T06:21:23;19.90;99.90
38500;DHT22;24269;51.894;4.622;2022-08-01T06:23:49;19.90;99.90
38500;DHT22;24269;51.894;4.622;2022-08-01T06:26:17;19.90;99.90
38500;DHT22;24269;51.894;4.622;2022-08-01T06:28:43;19.90;99.90
38500;DHT22;24269;51.894;4.622;2022-08-01T06:31:08;20.00;99.90
38500;DHT22;24269;51.894;4.622;2022-08-01T06:33:36;20.00;99.90
38500;DHT22;24269;51.894;4.622;2022-08-01T06:36:02;20.00;99.90
38500;DHT22;24269;51.894;4.622;2022-08-01T06:38:28;20.00;99.90
38500;DHT22;24269;51.894;4.622;2022-08-01T06:40:53;19.90;99.90
38500;DHT22;24269;51.894;4.622;2022-08-01T06:43:19;19.80;99.90
38500;DHT22;24269;51.894;4.622;2022-08-01T06:45:45;19.70;99.90
38500;DHT22;24269;51.894;4.622;2022-08-01T06:48:11;19.60;99.90
38500;DHT22;24269;51.894;4.622;2022-08-01T06:50:36;19.50;99.90
38500;DHT22;24269;51.894;4.622;2022-08-01T06:53:02;19.50;99.90
38500;DHT22;24269;51.894;4.622;2022-08-01T06:55:28;19.40;99.90
38500;DHT22;24269;51.894;4.622;2022-08-01T06:57:53;19.40;99.90
38500;DHT22;24269;51.894;4.622;2022-08-01T07:00:21;19.40;99.90
38500;DHT22;24269;51.894;4.622;2022-08-01T07:02:49;19.30;99.90
38500;DHT22;24269;51.894;4.622;2022-08-01T07:05:14;19.40;99.90
38500;DHT22;24269;51.894;4.622;2022-08-01T07:07:40;19.40;99.90
38500;DHT22;24269;51.894;4.622;2022-08-01T07:10:06;19.40;99.90
38500;DHT22;24269;51.894;4.622;2022-08-01T07:12:33;19.40;99.90
38500;DHT22;24269;51.894;4.622;2022-08-01T07:15:03;19.40;99.90
38500;DHT22;24269;51.894;4.622;2022-08-01T07:17:29;19.30;99.90
38500;DHT22;24269;51.894;4.622;2022-08-01T07:19:54;19.40;99.90
38500;DHT22;24269;51.894;4.622;2022-08-01T07:22:20;19.40;99.90
38500;DHT22;24269;51.894;4.622;2022-08-01T07:24:46;19.40;99.90
38500;DHT22;24269;51.894;4.622;2022-08-01T07:27:12;19.50;99.90
38500;DHT22;24269;51.894;4.622;2022-08-01T07:29:37;19.50;99.90
38500;DHT22;24269;51.894;4.622;2022-08-01T07:32:03;19.60;99.90
38500;DHT22;24269;51.894;4.622;2022-08-01T07:34:29;19.70;99.90
38500;DHT22;24269;51.894;4.622;2022-08-01T07:36:54;19.80;99.90
38500;DHT22;24269;51.894;4.622;2022-08-01T07:39:20;19.80;99.90
38500;DHT22;24269;51.894;4.622;2022-08-01T07:41:46;19.70;99.90
38500;DHT22;24269;51.894;4.622;2022-08-01T07:44:11;19.60;99.90
38500;DHT22;24269;51.894;4.622;2022-08-01T07:46:37;19.40;99.90
38500;DHT22;24269;51.894;4.622;2022-08-01T07:49:03;19.30;99.90
38500;DHT22;24269;51.894;4.622;2022-08-01T07:51:28;19.20;99.90
38500;DHT22;24269;51.894;4.622;2022-08-01T07:53:54;19.20;99.90
38500;DHT22;24269;51.894;4.622;2022-08-01T07:56:19;19.10;99.90
38500;DHT22;24269;51.894;4.622;2022-08-01T07:58:45;19.00;99.90
38500;DHT22;24269;51.894;4.622;2022-08-01T08:01:12;18.90;99.90
38500;DHT22;24269;51.894;4.622;2022-08-01T08:03:37;18.90;99.90
38500;DHT22;24269;51.894;4.622;2022-08-01T08:06:03;18.80;99.90
38500;DHT22;24269;51.894;4.622;2022-08-01T08:08:28;18.70;99.90
38500;DHT22;24269;51.894;4.622;2022-08-01T08:10:54;18.70;99.90
38500;DHT22;24269;51.894;4.622;2022-08-01T08:13:20;18.70;99.90
38500;DHT22;24269;51.894;4.622;2022-08-01T08:15:45;18.60;99.90
38500;DHT22;24269;51.894;4.622;2022-08-01T08:18:11;18.60;99.90
38500;DHT22;24269;51.894;4.622;2022-08-01T08:20:37;18.50;99.90
38500;DHT22;24269;51.894;4.622;2022-08-01T08:23:03;18.50;99.90
38500;DHT22;24269;51.894;4.622;2022-08-01T08:25:48;18.60;99.90
38500;DHT22;24269;51.894;4.622;2022-08-01T08:28:14;18.70;99.90
38500;DHT22;24269;51.894;4.622;2022-08-01T08:30:40;18.80;99.90
38500;DHT22;24269;51.894;4.622;2022-08-01T08:33:07;19.00;99.90
38500;DHT22;24269;51.894;4.622;2022-08-01T08:35:33;19.10;99.90
38500;DHT22;24269;51.894;4.622;2022-08-01T08:37:59;19.20;99.90
38500;DHT22;24269;51.894;4.622;2022-08-01T08:40:29;19.00;99.90
38500;DHT22;24269;51.894;4.622;2022-08-01T08:42:58;19.00;99.90
38500;DHT22;24269;51.894;4.622;2022-08-01T08:45:26;18.90;99.90
38500;DHT22;24269;51.894;4.622;2022-08-01T08:47:53;19.10;99.90
38500;DHT22;24269;51.894;4.622;2022-08-01T08:50:21;19.30;99.90
38500;DHT22;24269;51.894;4.622;2022-08-01T08:52:47;19.30;99.90
38500;DHT22;24269;51.894;4.622;2022-08-01T08:55:15;19.20;99.90
38500;DHT22;24269;51.894;4.622;2022-08-01T08:57:44;19.40;99.90
38500;DHT22;24269;51.894;4.622;2022-08-01T09:00:10;19.40;99.90
38500;DHT22;24269;51.894;4.622;2022-08-01T09:02:42;19.50;99.90
38500;DHT22;24269;51.894;4.622;2022-08-01T09:05:09;19.80;99.90
38500;DHT22;24269;51.894;4.622;2022-08-01T09:07:35;20.10;99.90
38500;DHT22;24269;51.894;4.622;2022-08-01T09:10:01;20.30;99.90
38500;DHT22;24269;51.894;4.622;2022-08-01T09:12:27;20.40;99.90
38500;DHT22;24269;51.894;4.622;2022-08-01T09:14:53;20.60;99.90
38500;DHT22;24269;51.894;4.622;2022-08-01T09:17:20;20.60;99.90
38500;DHT22;24269;51.894;4.622;2022-08-01T09:19:54;20.70;99.90
38500;DHT22;24269;51.894;4.622;2022-08-01T09:22:22;20.70;99.90
38500;DHT22;24269;51.894;4.622;2022-08-01T09:25:03;20.70;99.90
38500;DHT22;24269;51.894;4.622;2022-08-01T09:27:29;21.00;99.90
38500;DHT22;24269;51.894;4.622;2022-08-01T09:32:34;21.40;99.90
38500;DHT22;24269;51.894;4.622;2022-08-01T09:35:26;21.70;99.90
38500;DHT22;24269;51.894;4.622;2022-08-01T09:38:14;22.10;99.90
38500;DHT22;24269;51.894;4.622;2022-08-01T09:43:19;22.10;99.90
38500;DHT22;24269;51.894;4.622;2022-08-01T09:45:45;22.30;99.90
38500;DHT22;24269;51.894;4.622;2022-08-01T09:48:11;22.20;99.90
38500;DHT22;24269;51.894;4.622;2022-08-01T09:50:46;22.20;99.90
38500;DHT22;24269;51.894;4.622;2022-08-01T09:53:16;22.30;99.90
38500;DHT22;24269;51.894;4.622;2022-08-01T09:55:43;22.60;99.90
38500;DHT22;24269;51.894;4.622;2022-08-01T09:58:10;22.90;99.90
38500;DHT22;24269;51.894;4.622;2022-08-01T10:03:34;23.10;99.90
38500;DHT22;24269;51.894;4.622;2022-08-01T10:06:00;23.20;99.90
38500;DHT22;24269;51.894;4.622;2022-08-01T10:08:47;23.10;99.90
38500;DHT22;24269;51.894;4.622;2022-08-01T10:11:13;23.20;99.90
38500;DHT22;24269;51.894;4.622;2022-08-01T10:13:39;23.30;99.90
38500;DHT22;24269;51.894;4.622;2022-08-01T10:16:05;23.40;99.90
38500;DHT22;24269;51.894;4.622;2022-08-01T10:18:34;23.30;99.90
38500;DHT22;24269;51.894;4.622;2022-08-01T10:21:02;23.10;99.90
38500;DHT22;24269;51.894;4.622;2022-08-01T10:23:33;22.90;99.90
38500;DHT22;24269;51.894;4.622;2022-08-01T10:26:00;22.90;99.90
38500;DHT22;24269;51.894;4.622;2022-08-01T10:28:27;22.60;99.90
38500;DHT22;24269;51.894;4.622;2022-08-01T10:30:54;22.70;99.90
38500;DHT22;24269;51.894;4.622;2022-08-01T10:33:24;22.70;99.90
38500;DHT22;24269;51.894;4.622;2022-08-01T10:35:52;22.70;99.90
38500;DHT22;24269;51.894;4.622;2022-08-01T10:38:18;22.70;99.90
38500;DHT22;24269;51.894;4.622;2022-08-01T10:40:45;22.70;99.90
38500;DHT22;24269;51.894;4.622;2022-08-01T10:43:14;22.90;99.90
38500;DHT22;24269;51.894;4.622;2022-08-01T10:45:42;22.90;99.90
38500;DHT22;24269;51.894;4.622;2022-08-01T10:48:16;23.10;99.90
38500;DHT22;24269;51.894;4.622;2022-08-01T10:50:46;23.20;99.90
38500;DHT22;24269;51.894;4.622;2022-08-01T10:53:17;23.40;99.90
38500;DHT22;24269;51.894;4.622;2022-08-01T10:58:30;23.50;99.90
38500;DHT22;24269;51.894;4.622;2022-08-01T11:01:19;23.80;99.90
38500;DHT22;24269;51.894;4.622;2022-08-01T11:09:14;24.30;99.90
38500;DHT22;24269;51.894;4.622;2022-08-01T11:12:06;24.10;99.90
38500;DHT22;24269;51.894;4.622;2022-08-01T11:17:43;24.40;99.90
38500;DHT22;24269;51.894;4.622;2022-08-01T11:20:18;24.40;99.90
38500;DHT22;24269;51.894;4.622;2022-08-01T11:30:40;24.10;99.90
38500;DHT22;24269;51.894;4.622;2022-08-01T11:33:06;24.00;99.90
38500;DHT22;24269;51.894;4.622;2022-08-01T11:35:32;23.80;99.90
38500;DHT22;24269;51.894;4.622;2022-08-01T11:38:24;24.00;99.90
38500;DHT22;24269;51.894;4.622;2022-08-01T11:44:04;24.70;99.90
38500;DHT22;24269;51.894;4.622;2022-08-01T11:54:38;23.90;99.90
38500;DHT22;24269;51.894;4.622;2022-08-01T11:57:07;23.80;99.90
38500;DHT22;24269;51.894;4.622;2022-08-01T11:59:45;23.80;99.90
38500;DHT22;24269;51.894;4.622;2022-08-01T12:05:09;23.50;99.90
38500;DHT22;24269;51.894;4.622;2022-08-01T12:07:38;23.90;99.90
38500;DHT22;24269;51.894;4.622;2022-08-01T12:10:07;24.30;99.90
38500;DHT22;24269;51.894;4.622;2022-08-01T12:12:34;24.70;99.90
38500;DHT22;24269;51.894;4.622;2022-08-01T12:15:05;25.20;99.90
38500;DHT22;24269;51.894;4.622;2022-08-01T12:17:45;25.60;99.90
38500;DHT22;24269;51.894;4.622;2022-08-01T12:20:21;25.80;99.90
38500;DHT22;24269;51.894;4.622;2022-08-01T12:22:52;26.10;99.90
38500;DHT22;24269;51.894;4.622;2022-08-01T12:25:19;26.40;99.90
38500;DHT22;24269;51.894;4.622;2022-08-01T12:27:47;26.00;99.90
38500;DHT22;24269;51.894;4.622;2022-08-01T12:30:15;25.60;99.90
38500;DHT22;24269;51.894;4.622;2022-08-01T12:32:43;25.70;99.90
38500;DHT22;24269;51.894;4.622;2022-08-01T12:35:17;25.90;99.90
38500;DHT22;24269;51.894;4.622;2022-08-01T12:37:48;26.00;99.90
38500;DHT22;24269;51.894;4.622;2022-08-01T12:40:17;26.20;99.90
38500;DHT22;24269;51.894;4.622;2022-08-01T12:42:50;25.90;99.90
38500;DHT22;24269;51.894;4.622;2022-08-01T12:45:27;26.00;99.90
38500;DHT22;24269;51.894;4.622;2022-08-01T12:47:54;26.30;99.90
38500;DHT22;24269;51.894;4.622;2022-08-01T12:50:24;26.30;99.90
38500;DHT22;24269;51.894;4.622;2022-08-01T12:52:51;26.60;99.90
38500;DHT22;24269;51.894;4.622;2022-08-01T12:55:19;26.80;99.90
38500;DHT22;24269;51.894;4.622;2022-08-01T12:57:47;27.10;99.90
38500;DHT22;24269;51.894;4.622;2022-08-01T13:00:25;26.90;99.90
38500;DHT22;24269;51.894;4.622;2022-08-01T13:03:23;26.80;99.90
38500;DHT22;24269;51.894;4.622;2022-08-01T13:05:51;26.70;99.90
38500;DHT22;24269;51.894;4.622;2022-08-01T13:08:19;26.70;99.90
38500;DHT22;24269;51.894;4.622;2022-08-01T13:10:45;26.60;99.90
38500;DHT22;24269;51.894;4.622;2022-08-01T13:13:12;26.40;99.90
38500;DHT22;24269;51.894;4.622;2022-08-01T13:15:40;26.20;99.90
38500;DHT22;24269;51.894;4.622;2022-08-01T13:20:49;26.30;99.90
38500;DHT22;24269;51.894;4.622;2022-08-01T13:23:17;26.40;99.90
38500;DHT22;24269;51.894;4.622;2022-08-01T13:25:55;26.50;99.90
38500;DHT22;24269;51.894;4.622;2022-08-01T13:28:26;26.50;99.90
38500;DHT22;24269;51.894;4.622;2022-08-01T13:30:55;26.90;99.90
38500;DHT22;24269;51.894;4.622;2022-08-01T13:33:22;26.90;99.90
38500;DHT22;24269;51.894;4.622;2022-08-01T13:35:50;27.10;99.90
38500;DHT22;24269;51.894;4.622;2022-08-01T13:38:16;26.90;99.90
38500;DHT22;24269;51.894;4.622;2022-08-01T13:40:41;27.30;99.90
38500;DHT22;24269;51.894;4.622;2022-08-01T13:43:08;27.70;99.90
38500;DHT22;24269;51.894;4.622;2022-08-01T13:45:34;27.60;99.90
38500;DHT22;24269;51.894;4.622;2022-08-01T13:48:00;27.60;99.90
38500;DHT22;24269;51.894;4.622;2022-08-01T13:50:25;27.40;99.90
38500;DHT22;24269;51.894;4.622;2022-08-01T13:52:51;27.40;99.90
38500;DHT22;24269;51.894;4.622;2022-08-01T13:55:17;27.60;99.90
38500;DHT22;24269;51.894;4.622;2022-08-01T13:57:42;28.00;99.90
38500;DHT22;24269;51.894;4.622;2022-08-01T14:00:10;28.20;99.90
38500;DHT22;24269;51.894;4.622;2022-08-01T14:02:36;28.50;99.90
38500;DHT22;24269;51.894;4.622;2022-08-01T14:05:02;28.40;99.90
38500;DHT22;24269;51.894;4.622;2022-08-01T14:07:28;28.30;99.90
38500;DHT22;24269;51.894;4.622;2022-08-01T14:09:53;28.30;99.90
38500;DHT22;24269;51.894;4.622;2022-08-01T14:12:19;28.60;99.90
38500;DHT22;24269;51.894;4.622;2022-08-01T14:14:45;29.00;99.90
38500;DHT22;24269;51.894;4.622;2022-08-01T14:17:10;29.00;99.90
38500;DHT22;24269;51.894;4.622;2022-08-01T14:19:36;29.40;99.90
38500;DHT22;24269;51.894;4.622;2022-08-01T14:22:02;29.70;99.90
38500;DHT22;24269;51.894;4.622;2022-08-01T14:24:27;29.30;99.90
38500;DHT22;24269;51.894;4.622;2022-08-01T14:26:53;29.10;99.40
38500;DHT22;24269;51.894;4.622;2022-08-01T14:29:19;29.10;99.80
38500;DHT22;24269;51.894;4.622;2022-08-01T14:31:45;29.50;99.10
38500;DHT22;24269;51.894;4.622;2022-08-01T14:34:10;30.00;97.00
38500;DHT22;24269;51.894;4.622;2022-08-01T14:36:38;30.70;97.90
38500;DHT22;24269;51.894;4.622;2022-08-01T14:39:03;30.90;94.80
38500;DHT22;24269;51.894;4.622;2022-08-01T14:41:29;31.20;96.10
38500;DHT22;24269;51.894;4.622;2022-08-01T14:43:55;31.60;95.60
38500;DHT22;24269;51.894;4.622;2022-08-01T14:46:20;32.00;97.00
38500;DHT22;24269;51.894;4.622;2022-08-01T14:48:46;31.60;93.70
38500;DHT22;24269;51.894;4.622;2022-08-01T14:51:11;31.60;94.20
38500;DHT22;24269;51.894;4.622;2022-08-01T14:53:37;32.00;92.60
38500;DHT22;24269;51.894;4.622;2022-08-01T14:56:03;31.50;91.80
38500;DHT22;24269;51.894;4.622;2022-08-01T14:58:29;31.80;92.70
38500;DHT22;24269;51.894;4.622;2022-08-01T15:00:55;32.00;91.70
38500;DHT22;24269;51.894;4.622;2022-08-01T15:03:21;32.20;93.00
38500;DHT22;24269;51.894;4.622;2022-08-01T15:05:47;32.40;92.00
38500;DHT22;24269;51.894;4.622;2022-08-01T15:08:13;32.40;91.40
38500;DHT22;24269;51.894;4.622;2022-08-01T15:10:41;32.80;91.50
38500;DHT22;24269;51.894;4.622;2022-08-01T15:13:07;32.00;88.30
38500;DHT22;24269;51.894;4.622;2022-08-01T15:15:33;31.10;90.90
38500;DHT22;24269;51.894;4.622;2022-08-01T15:17:58;31.00;90.90
38500;DHT22;24269;51.894;4.622;2022-08-01T15:20:24;31.10;92.00
38500;DHT22;24269;51.894;4.622;2022-08-01T15:22:55;31.40;90.00
38500;DHT22;24269;51.894;4.622;2022-08-01T15:25:21;31.90;91.40
38500;DHT22;24269;51.894;4.622;2022-08-01T15:27:47;32.10;90.80
38500;DHT22;24269;51.894;4.622;2022-08-01T15:30:13;30.70;91.00
38500;DHT22;24269;51.894;4.622;2022-08-01T15:32:38;29.30;92.40
38500;DHT22;24269;51.894;4.622;2022-08-01T15:35:05;27.90;93.70
38500;DHT22;24269;51.894;4.622;2022-08-01T15:37:31;27.30;94.90
38500;DHT22;24269;51.894;4.622;2022-08-01T15:39:57;28.10;93.90
38500;DHT22;24269;51.894;4.622;2022-08-01T15:42:23;28.90;92.90
38500;DHT22;24269;51.894;4.622;2022-08-01T15:44:48;30.30;92.00
38500;DHT22;24269;51.894;4.622;2022-08-01T15:47:14;31.40;91.40
38500;DHT22;24269;51.894;4.622;2022-08-01T15:49:39;32.10;89.80
38500;DHT22;24269;51.894;4.622;2022-08-01T15:52:06;32.40;85.10
38500;DHT22;24269;51.894;4.622;2022-08-01T15:54:33;33.00;90.00
38500;DHT22;24269;51.894;4.622;2022-08-01T15:56:59;33.10;88.10
38500;DHT22;24269;51.894;4.622;2022-08-01T15:59:25;32.40;87.60
38500;DHT22;24269;51.894;4.622;2022-08-01T16:01:50;32.60;87.90
38500;DHT22;24269;51.894;4.622;2022-08-01T16:04:17;32.60;86.10
38500;DHT22;24269;51.894;4.622;2022-08-01T16:06:44;32.80;88.50
38500;DHT22;24269;51.894;4.622;2022-08-01T16:09:10;32.80;84.90
38500;DHT22;24269;51.894;4.622;2022-08-01T16:11:36;32.50;87.30
38500;DHT22;24269;51.894;4.622;2022-08-01T16:14:02;32.00;87.60
38500;DHT22;24269;51.894;4.622;2022-08-01T16:16:28;30.30;88.20
38500;DHT22;24269;51.894;4.622;2022-08-01T16:18:53;28.80;90.30
38500;DHT22;24269;51.894;4.622;2022-08-01T16:21:19;27.40;91.20
38500;DHT22;24269;51.894;4.622;2022-08-01T16:23:46;26.40;92.60
38500;DHT22;24269;51.894;4.622;2022-08-01T16:26:14;25.50;93.50
38500;DHT22;24269;51.894;4.622;2022-08-01T16:28:39;25.00;94.40